createdAt,value
2018-08-20T00:00:05.755Z,1011.75
2018-08-20T00:00:41.014Z,1011.78
2018-08-20T00:01:16.405Z,1011.78
2018-08-20T00:01:51.765Z,1011.78
2018-08-20T00:02:27.268Z,1011.79
2018-08-20T00:03:02.814Z,1011.76
2018-08-20T00:03:38.144Z,1011.78
2018-08-20T00:04:13.552Z,1011.77
2018-08-20T00:04:48.887Z,1011.76
2018-08-20T00:05:24.179Z,1011.78
2018-08-20T00:05:59.620Z,1011.81
2018-08-20T00:06:35.037Z,1011.79
2018-08-20T00:07:10.372Z,1011.78
2018-08-20T00:07:45.891Z,1011.75
2018-08-20T00:08:21.024Z,1011.75
2018-08-20T00:08:56.501Z,1011.76
2018-08-20T00:09:31.706Z,1011.75
2018-08-20T00:10:07.034Z,1011.73
2018-08-20T00:10:42.708Z,1011.70
2018-08-20T00:11:18.399Z,1011.70
2018-08-20T00:11:53.728Z,1011.71
2018-08-20T00:12:28.943Z,1011.66
2018-08-20T00:13:04.381Z,1011.76
2018-08-20T00:13:39.801Z,1011.70
2018-08-20T00:14:15.120Z,1011.70
2018-08-20T00:14:50.448Z,1011.72
2018-08-20T00:15:25.986Z,1011.74
2018-08-20T00:16:01.722Z,1011.75
2018-08-20T00:16:37.187Z,1011.72
2018-08-20T00:17:12.674Z,1011.75
2018-08-20T00:17:47.835Z,1011.76
2018-08-20T00:18:23.044Z,1011.81
2018-08-20T00:18:58.485Z,1011.74
2018-08-20T00:19:33.759Z,1011.75
2018-08-20T00:20:09.174Z,1011.73
2018-08-20T00:20:44.301Z,1011.76
2018-08-20T00:21:19.635Z,1011.78
2018-08-20T00:21:54.776Z,1011.77
2018-08-20T00:22:30.083Z,1011.76
2018-08-20T00:23:05.630Z,1011.73
2018-08-20T00:23:41.164Z,1011.74
2018-08-20T00:24:16.394Z,1011.75
2018-08-20T00:24:51.935Z,1011.72
2018-08-20T00:25:27.154Z,1011.75
2018-08-20T00:26:02.497Z,1011.77
2018-08-20T00:26:37.737Z,1011.77
2018-08-20T00:27:13.144Z,1011.75
2018-08-20T00:27:48.433Z,1011.77
2018-08-20T00:28:23.652Z,1011.75
2018-08-20T00:28:59.183Z,1011.76
2018-08-20T00:29:34.505Z,1011.71
2018-08-20T00:30:09.725Z,1011.75
2018-08-20T00:30:45.048Z,1011.73
2018-08-20T00:31:20.601Z,1011.71
2018-08-20T00:31:55.935Z,1011.65
2018-08-20T00:32:31.037Z,1011.69
2018-08-20T00:33:06.170Z,1011.72
2018-08-20T00:33:41.202Z,1011.69
2018-08-20T00:34:16.538Z,1011.74
2018-08-20T00:34:52.078Z,1011.72
2018-08-20T00:35:27.484Z,1011.72
2018-08-20T00:36:03.047Z,1011.67
2018-08-20T00:36:38.313Z,1011.70
2018-08-20T00:37:13.639Z,1011.69
2018-08-20T00:37:48.962Z,1011.73
2018-08-20T00:38:24.349Z,1011.70
2018-08-20T00:38:59.582Z,1011.67
2018-08-20T00:39:34.639Z,1011.70
2018-08-20T00:40:09.752Z,1011.71
2018-08-20T00:40:45.393Z,1011.65
2018-08-20T00:41:20.745Z,1011.68
2018-08-20T00:41:55.883Z,1011.67
2018-08-20T00:42:31.502Z,1011.71
2018-08-20T00:43:07.056Z,1011.69
2018-08-20T00:43:42.196Z,1011.72
2018-08-20T00:44:17.421Z,1011.70
2018-08-20T00:44:52.636Z,1011.71
2018-08-20T00:45:28.030Z,1011.71
2018-08-20T00:46:03.696Z,1011.71
2018-08-20T00:46:39.148Z,1011.74
2018-08-20T00:47:14.668Z,1011.73
2018-08-20T00:47:50.239Z,1011.71
2018-08-20T00:48:25.954Z,1011.71
2018-08-20T00:49:01.269Z,1011.69
2018-08-20T00:49:36.785Z,1011.66
2018-08-20T00:50:12.105Z,1011.67
2018-08-20T00:50:47.447Z,1011.67
2018-08-20T00:51:22.964Z,1011.66
2018-08-20T00:51:58.399Z,1011.59
2018-08-20T00:52:33.844Z,1011.66
2018-08-20T00:53:09.186Z,1011.67
2018-08-20T00:53:44.417Z,1011.68
2018-08-20T00:54:19.818Z,1011.65
2018-08-20T00:54:55.151Z,1011.62
2018-08-20T00:55:30.347Z,1011.69
2018-08-20T00:56:05.651Z,1011.66
2018-08-20T00:56:41.040Z,1011.67
2018-08-20T00:57:16.274Z,1011.64
2018-08-20T00:57:51.713Z,1011.70
2018-08-20T00:58:27.027Z,1011.67
2018-08-20T00:59:02.472Z,1011.64
2018-08-20T00:59:37.827Z,1011.65
2018-08-20T01:00:13.618Z,1011.66
2018-08-20T01:00:49.063Z,1011.64
2018-08-20T01:01:24.394Z,1011.66
2018-08-20T01:01:59.842Z,1011.65
2018-08-20T01:02:35.496Z,1011.70
2018-08-20T01:03:11.028Z,1011.65
2018-08-20T01:03:46.264Z,1011.72
2018-08-20T01:04:21.580Z,1011.64
2018-08-20T01:04:56.917Z,1011.68
2018-08-20T01:05:32.553Z,1011.65
2018-08-20T01:06:07.916Z,1011.62
2018-08-20T01:06:43.452Z,1011.64
2018-08-20T01:07:18.542Z,1011.67
2018-08-20T01:07:54.089Z,1011.65
2018-08-20T01:08:29.199Z,1011.65
2018-08-20T01:09:04.948Z,1011.66
2018-08-20T01:09:40.265Z,1011.69
2018-08-20T01:10:15.372Z,1011.68
2018-08-20T01:10:51.089Z,1011.68
2018-08-20T01:11:26.506Z,1011.68
2018-08-20T01:12:01.823Z,1011.68
2018-08-20T01:12:37.177Z,1011.68
2018-08-20T01:13:12.393Z,1011.66
2018-08-20T01:13:47.771Z,1011.67
2018-08-20T01:14:23.103Z,1011.68
2018-08-20T01:14:58.678Z,1011.62
2018-08-20T01:15:34.309Z,1011.63
2018-08-20T01:16:09.840Z,1011.67
2018-08-20T01:16:45.194Z,1011.67
2018-08-20T01:17:20.840Z,1011.65
2018-08-20T01:17:56.517Z,1011.69
2018-08-20T01:18:32.028Z,1011.64
2018-08-20T01:19:07.590Z,1011.63
2018-08-20T01:19:42.947Z,1011.64
2018-08-20T01:20:18.450Z,1011.63
2018-08-20T01:20:54.051Z,1011.62
2018-08-20T01:21:30.497Z,1011.66
2018-08-20T01:22:06.371Z,1011.63
2018-08-20T01:22:41.747Z,1011.64
2018-08-20T01:23:17.138Z,1011.64
2018-08-20T01:23:52.432Z,1011.68
2018-08-20T01:24:27.868Z,1011.65
2018-08-20T01:25:03.169Z,1011.68
2018-08-20T01:25:39.749Z,1011.66
2018-08-20T01:26:15.268Z,1011.66
2018-08-20T01:26:51.179Z,1011.70
2018-08-20T01:27:26.553Z,1011.69
2018-08-20T01:28:02.149Z,1011.72
2018-08-20T01:28:37.661Z,1011.67
2018-08-20T01:29:12.996Z,1011.67
2018-08-20T01:29:48.340Z,1011.66
2018-08-20T01:30:24.233Z,1011.62
2018-08-20T01:30:59.650Z,1011.61
2018-08-20T01:31:34.974Z,1011.67
2018-08-20T01:32:10.382Z,1011.66
2018-08-20T01:32:45.541Z,1011.62
2018-08-20T01:33:20.960Z,1011.64
2018-08-20T01:33:56.202Z,1011.65
2018-08-20T01:34:31.320Z,1011.64
2018-08-20T01:35:06.557Z,1011.61
2018-08-20T01:35:41.891Z,1011.65
2018-08-20T01:36:17.202Z,1011.63
2018-08-20T01:36:52.974Z,1011.62
2018-08-20T01:37:28.218Z,1011.63
2018-08-20T01:38:03.653Z,1011.62
2018-08-20T01:38:39.176Z,1011.63
2018-08-20T01:39:14.509Z,1011.62
2018-08-20T01:39:49.886Z,1011.62
2018-08-20T01:40:25.309Z,1011.62
2018-08-20T01:41:00.655Z,1011.59
2018-08-20T01:41:36.066Z,1011.59
2018-08-20T01:42:11.319Z,1011.64
2018-08-20T01:42:46.727Z,1011.57
2018-08-20T01:43:21.956Z,1011.60
2018-08-20T01:43:57.479Z,1011.60
2018-08-20T01:44:32.781Z,1011.58
2018-08-20T01:45:08.319Z,1011.60
2018-08-20T01:45:46.325Z,1011.58
2018-08-20T01:46:21.745Z,1011.61
2018-08-20T01:46:57.192Z,1011.62
2018-08-20T01:47:32.812Z,1011.62
2018-08-20T01:48:08.160Z,1011.60
2018-08-20T01:48:43.847Z,1011.61
2018-08-20T01:49:19.507Z,1011.63
2018-08-20T01:49:54.957Z,1011.61
2018-08-20T01:50:30.162Z,1011.65
2018-08-20T01:51:05.693Z,1011.65
2018-08-20T01:51:40.895Z,1011.63
2018-08-20T01:52:16.648Z,1011.61
2018-08-20T01:52:52.153Z,1011.61
2018-08-20T01:53:27.464Z,1011.61
2018-08-20T01:54:02.980Z,1011.62
2018-08-20T01:54:38.316Z,1011.59
2018-08-20T01:55:13.847Z,1011.59
2018-08-20T01:55:49.156Z,1011.58
2018-08-20T01:56:24.512Z,1011.58
2018-08-20T01:56:59.899Z,1011.59
2018-08-20T01:57:35.230Z,1011.56
2018-08-20T01:58:10.701Z,1011.56
2018-08-20T01:58:46.097Z,1011.55
2018-08-20T01:59:21.550Z,1011.55
2018-08-20T01:59:56.707Z,1011.54
2018-08-20T02:00:32.502Z,1011.54
2018-08-20T02:01:08.133Z,1011.54
2018-08-20T02:01:43.368Z,1011.50
2018-08-20T02:02:18.637Z,1011.53
2018-08-20T02:02:54.100Z,1011.52
2018-08-20T02:03:29.604Z,1011.52
2018-08-20T02:04:04.814Z,1011.50
2018-08-20T02:04:40.105Z,1011.50
2018-08-20T02:05:15.341Z,1011.47
2018-08-20T02:05:51.020Z,1011.48
2018-08-20T02:06:26.462Z,1011.54
2018-08-20T02:07:01.743Z,1011.52
2018-08-20T02:07:37.342Z,1011.53
2018-08-20T02:08:12.701Z,1011.50
2018-08-20T02:08:48.110Z,1011.51
2018-08-20T02:09:23.442Z,1011.49
2018-08-20T02:09:58.772Z,1011.50
2018-08-20T02:10:34.197Z,1011.52
2018-08-20T02:11:09.633Z,1011.47
2018-08-20T02:11:44.942Z,1011.47
2018-08-20T02:12:20.218Z,1011.47
2018-08-20T02:12:55.759Z,1011.45
2018-08-20T02:13:31.266Z,1011.50
2018-08-20T02:14:06.914Z,1011.51
2018-08-20T02:14:42.454Z,1011.46
2018-08-20T02:15:17.798Z,1011.50
2018-08-20T02:15:53.110Z,1011.46
2018-08-20T02:16:28.649Z,1011.49
2018-08-20T02:17:03.882Z,1011.51
2018-08-20T02:17:39.430Z,1011.46
2018-08-20T02:18:14.970Z,1011.46
2018-08-20T02:18:50.283Z,1011.51
2018-08-20T02:19:25.522Z,1011.46
2018-08-20T02:20:00.765Z,1011.49
2018-08-20T02:20:36.161Z,1011.45
2018-08-20T02:21:11.464Z,1011.46
2018-08-20T02:21:46.782Z,1011.44
2018-08-20T02:22:22.057Z,1011.44
2018-08-20T02:22:57.364Z,1011.38
2018-08-20T02:23:32.876Z,1011.40
2018-08-20T02:24:08.040Z,1011.40
2018-08-20T02:24:43.262Z,1011.38
2018-08-20T02:25:18.893Z,1011.35
2018-08-20T02:25:54.102Z,1011.36
2018-08-20T02:26:29.408Z,1011.36
2018-08-20T02:27:04.457Z,1011.37
2018-08-20T02:27:40.091Z,1011.36
2018-08-20T02:28:15.605Z,1011.37
2018-08-20T02:28:50.856Z,1011.38
2018-08-20T02:29:26.073Z,1011.38
2018-08-20T02:30:01.743Z,1011.41
2018-08-20T02:30:38.438Z,1011.37
2018-08-20T02:31:13.793Z,1011.41
2018-08-20T02:31:49.486Z,1011.37
2018-08-20T02:32:24.860Z,1011.39
2018-08-20T02:32:59.897Z,1011.40
2018-08-20T02:33:34.903Z,1011.40
2018-08-20T02:34:10.458Z,1011.37
2018-08-20T02:34:46.090Z,1011.40
2018-08-20T02:35:21.330Z,1011.39
2018-08-20T02:35:56.630Z,1011.37
2018-08-20T02:36:31.994Z,1011.36
2018-08-20T02:37:07.559Z,1011.35
2018-08-20T02:37:43.092Z,1011.40
2018-08-20T02:38:18.532Z,1011.37
2018-08-20T02:38:53.635Z,1011.38
2018-08-20T02:39:29.485Z,1011.38
2018-08-20T02:40:04.827Z,1011.37
2018-08-20T02:40:39.949Z,1011.37
2018-08-20T02:41:15.392Z,1011.41
2018-08-20T02:41:50.499Z,1011.41
2018-08-20T02:42:25.728Z,1011.36
2018-08-20T02:43:01.053Z,1011.33
2018-08-20T02:43:36.484Z,1011.35
2018-08-20T02:44:12.034Z,1011.40
2018-08-20T02:44:47.569Z,1011.38
2018-08-20T02:45:23.282Z,1011.40
2018-08-20T02:45:59.803Z,1011.36
2018-08-20T02:46:35.038Z,1011.39
2018-08-20T02:47:10.264Z,1011.34
2018-08-20T02:47:46.054Z,1011.38
2018-08-20T02:48:21.780Z,1011.39
2018-08-20T02:48:57.083Z,1011.40
2018-08-20T02:49:32.499Z,1011.38
2018-08-20T02:50:07.726Z,1011.38
2018-08-20T02:50:43.017Z,1011.34
2018-08-20T02:51:18.465Z,1011.36
2018-08-20T02:51:54.097Z,1011.34
2018-08-20T02:52:29.511Z,1011.37
2018-08-20T02:53:04.800Z,1011.40
2018-08-20T02:53:40.207Z,1011.38
2018-08-20T02:54:15.342Z,1011.39
2018-08-20T02:54:50.652Z,1011.39
2018-08-20T02:55:26.415Z,1011.38
2018-08-20T02:56:01.681Z,1011.35
2018-08-20T02:56:36.989Z,1011.39
2018-08-20T02:57:12.112Z,1011.37
2018-08-20T02:57:47.746Z,1011.39
2018-08-20T02:58:23.389Z,1011.32
2018-08-20T02:58:58.885Z,1011.37
2018-08-20T02:59:34.297Z,1011.33
2018-08-20T03:00:09.824Z,1011.31
2018-08-20T03:00:45.044Z,1011.30
2018-08-20T03:01:20.423Z,1011.29
2018-08-20T03:01:55.517Z,1011.29
2018-08-20T03:02:30.849Z,1011.29
2018-08-20T03:03:06.603Z,1011.28
2018-08-20T03:03:41.925Z,1011.30
2018-08-20T03:04:17.230Z,1011.29
2018-08-20T03:04:52.538Z,1011.31
2018-08-20T03:05:27.756Z,1011.28
2018-08-20T03:06:03.095Z,1011.29
2018-08-20T03:06:38.715Z,1011.25
2018-08-20T03:07:13.976Z,1011.30
2018-08-20T03:07:49.292Z,1011.28
2018-08-20T03:08:24.738Z,1011.27
2018-08-20T03:09:01.254Z,1011.28
2018-08-20T03:09:36.690Z,1011.28
2018-08-20T03:10:12.020Z,1011.27
2018-08-20T03:10:47.330Z,1011.26
2018-08-20T03:11:22.557Z,1011.31
2018-08-20T03:11:57.864Z,1011.29
2018-08-20T03:12:33.213Z,1011.28
2018-08-20T03:13:08.578Z,1011.33
2018-08-20T03:13:44.096Z,1011.32
2018-08-20T03:14:19.329Z,1011.28
2018-08-20T03:14:54.547Z,1011.31
2018-08-20T03:15:29.884Z,1011.34
2018-08-20T03:16:05.341Z,1011.35
2018-08-20T03:16:40.343Z,1011.34
2018-08-20T03:17:15.567Z,1011.31
2018-08-20T03:17:51.077Z,1011.36
2018-08-20T03:18:26.436Z,1011.34
2018-08-20T03:19:01.651Z,1011.33
2018-08-20T03:19:36.990Z,1011.33
2018-08-20T03:20:12.523Z,1011.30
2018-08-20T03:20:47.737Z,1011.31
2018-08-20T03:21:22.867Z,1011.31
2018-08-20T03:21:58.106Z,1011.32
2018-08-20T03:22:33.583Z,1011.34
2018-08-20T03:23:08.836Z,1011.29
2018-08-20T03:23:44.147Z,1011.30
2018-08-20T03:24:19.489Z,1011.31
2018-08-20T03:24:54.704Z,1011.32
2018-08-20T03:25:30.252Z,1011.31
2018-08-20T03:26:05.964Z,1011.28
2018-08-20T03:26:41.370Z,1011.30
2018-08-20T03:27:16.590Z,1011.30
2018-08-20T03:27:51.891Z,1011.32
2018-08-20T03:28:27.146Z,1011.33
2018-08-20T03:29:02.359Z,1011.32
2018-08-20T03:29:37.263Z,1011.29
2018-08-20T03:30:12.609Z,1011.27
2018-08-20T03:30:47.811Z,1011.28
2018-08-20T03:31:22.859Z,1011.29
2018-08-20T03:31:58.374Z,1011.30
2018-08-20T03:32:33.615Z,1011.30
2018-08-20T03:33:08.866Z,1011.29
2018-08-20T03:33:44.350Z,1011.30
2018-08-20T03:34:19.484Z,1011.35
2018-08-20T03:34:54.801Z,1011.33
2018-08-20T03:35:30.135Z,1011.36
2018-08-20T03:36:05.979Z,1011.33
2018-08-20T03:36:41.390Z,1011.34
2018-08-20T03:37:16.818Z,1011.34
2018-08-20T03:37:52.311Z,1011.33
2018-08-20T03:38:27.476Z,1011.35
2018-08-20T03:39:03.143Z,1011.30
2018-08-20T03:39:38.591Z,1011.34
2018-08-20T03:40:14.129Z,1011.35
2018-08-20T03:40:49.569Z,1011.36
2018-08-20T03:41:24.808Z,1011.34
2018-08-20T03:42:00.510Z,1011.33
2018-08-20T03:42:36.458Z,1011.35
2018-08-20T03:43:11.649Z,1011.35
2018-08-20T03:43:46.956Z,1011.37
2018-08-20T03:44:22.405Z,1011.33
2018-08-20T03:44:57.704Z,1011.35
2018-08-20T03:45:32.952Z,1011.35
2018-08-20T03:46:08.485Z,1011.38
2018-08-20T03:46:43.894Z,1011.37
2018-08-20T03:47:20.310Z,1011.36
2018-08-20T03:47:55.526Z,1011.40
2018-08-20T03:48:30.790Z,1011.36
2018-08-20T03:49:06.212Z,1011.39
2018-08-20T03:49:41.535Z,1011.39
2018-08-20T03:50:16.965Z,1011.38
2018-08-20T03:50:52.406Z,1011.39
2018-08-20T03:51:27.837Z,1011.38
2018-08-20T03:52:03.238Z,1011.43
2018-08-20T03:52:38.355Z,1011.37
2018-08-20T03:53:13.491Z,1011.40
2018-08-20T03:53:48.631Z,1011.37
2018-08-20T03:54:23.866Z,1011.39
2018-08-20T03:54:58.859Z,1011.40
2018-08-20T03:55:34.581Z,1011.42
2018-08-20T03:56:09.803Z,1011.37
2018-08-20T03:56:45.322Z,1011.42
2018-08-20T03:57:20.472Z,1011.39
2018-08-20T03:57:55.915Z,1011.39
2018-08-20T03:58:31.256Z,1011.39
2018-08-20T03:59:06.576Z,1011.37
2018-08-20T03:59:41.974Z,1011.42
2018-08-20T04:00:17.496Z,1011.42
2018-08-20T04:00:52.809Z,1011.43
2018-08-20T04:01:28.359Z,1011.43
2018-08-20T04:02:03.794Z,1011.45
2018-08-20T04:02:39.219Z,1011.45
2018-08-20T04:03:14.776Z,1011.44
2018-08-20T04:03:50.423Z,1011.45
2018-08-20T04:04:25.751Z,1011.44
2018-08-20T04:05:01.089Z,1011.45
2018-08-20T04:05:36.185Z,1011.43
2018-08-20T04:06:11.521Z,1011.43
2018-08-20T04:06:46.843Z,1011.45
2018-08-20T04:07:22.301Z,1011.48
2018-08-20T04:07:57.802Z,1011.50
2018-08-20T04:08:33.056Z,1011.50
2018-08-20T04:09:08.384Z,1011.52
2018-08-20T04:09:43.912Z,1011.46
2018-08-20T04:10:19.233Z,1011.52
2018-08-20T04:10:54.510Z,1011.52
2018-08-20T04:11:29.849Z,1011.47
2018-08-20T04:12:05.238Z,1011.49
2018-08-20T04:12:40.878Z,1011.43
2018-08-20T04:13:16.218Z,1011.47
2018-08-20T04:13:51.971Z,1011.44
2018-08-20T04:14:27.280Z,1011.40
2018-08-20T04:15:02.531Z,1011.41
2018-08-20T04:15:37.969Z,1011.43
2018-08-20T04:16:13.184Z,1011.47
2018-08-20T04:16:48.548Z,1011.43
2018-08-20T04:17:23.901Z,1011.46
2018-08-20T04:17:59.118Z,1011.41
2018-08-20T04:18:34.609Z,1011.41
2018-08-20T04:19:09.904Z,1011.43
2018-08-20T04:19:45.030Z,1011.41
2018-08-20T04:20:20.438Z,1011.42
2018-08-20T04:20:55.961Z,1011.39
2018-08-20T04:21:31.349Z,1011.42
2018-08-20T04:22:06.702Z,1011.40
2018-08-20T04:22:42.150Z,1011.38
2018-08-20T04:23:17.486Z,1011.37
2018-08-20T04:23:53.140Z,1011.31
2018-08-20T04:24:28.345Z,1011.35
2018-08-20T04:25:03.981Z,1011.33
2018-08-20T04:25:39.165Z,1011.29
2018-08-20T04:26:14.989Z,1011.25
2018-08-20T04:26:50.334Z,1011.31
2018-08-20T04:27:25.466Z,1011.27
2018-08-20T04:28:00.713Z,1011.29
2018-08-20T04:28:36.001Z,1011.24
2018-08-20T04:29:11.470Z,1011.26
2018-08-20T04:29:46.631Z,1011.26
2018-08-20T04:30:22.119Z,1011.28
2018-08-20T04:30:57.554Z,1011.28
2018-08-20T04:31:33.143Z,1011.27
2018-08-20T04:32:08.493Z,1011.25
2018-08-20T04:32:43.809Z,1011.28
2018-08-20T04:33:19.240Z,1011.23
2018-08-20T04:33:54.524Z,1011.26
2018-08-20T04:34:29.821Z,1011.23
2018-08-20T04:35:05.555Z,1011.25
2018-08-20T04:35:41.158Z,1011.22
2018-08-20T04:36:16.582Z,1011.24
2018-08-20T04:36:52.135Z,1011.20
2018-08-20T04:37:27.528Z,1011.18
2018-08-20T04:38:02.844Z,1011.19
2018-08-20T04:38:38.241Z,1011.25
2018-08-20T04:39:13.600Z,1011.33
2018-08-20T04:39:49.043Z,1011.38
2018-08-20T04:40:24.355Z,1011.41
2018-08-20T04:40:59.465Z,1011.37
2018-08-20T04:41:34.760Z,1011.38
2018-08-20T04:42:10.234Z,1011.38
2018-08-20T04:42:45.600Z,1011.39
2018-08-20T04:43:21.007Z,1011.37
2018-08-20T04:43:56.255Z,1011.37
2018-08-20T04:44:31.680Z,1011.33
2018-08-20T04:45:07.018Z,1011.35
2018-08-20T04:45:44.742Z,1011.33
2018-08-20T04:46:20.167Z,1011.33
2018-08-20T04:46:55.578Z,1011.34
2018-08-20T04:47:31.070Z,1011.34
2018-08-20T04:48:06.394Z,1011.33
2018-08-20T04:48:41.729Z,1011.33
2018-08-20T04:49:17.059Z,1011.36
2018-08-20T04:49:52.403Z,1011.32
2018-08-20T04:50:27.673Z,1011.38
2018-08-20T04:51:03.307Z,1011.35
2018-08-20T04:51:38.394Z,1011.35
2018-08-20T04:52:13.817Z,1011.36
2018-08-20T04:52:49.171Z,1011.34
2018-08-20T04:53:24.486Z,1011.33
2018-08-20T04:54:00.059Z,1011.32
2018-08-20T04:54:35.467Z,1011.30
2018-08-20T04:55:10.994Z,1011.33
2018-08-20T04:55:46.431Z,1011.33
2018-08-20T04:56:22.047Z,1011.31
2018-08-20T04:56:57.371Z,1011.33
2018-08-20T04:57:32.687Z,1011.29
2018-08-20T04:58:08.056Z,1011.34
2018-08-20T04:58:43.610Z,1011.29
2018-08-20T04:59:18.860Z,1011.29
2018-08-20T04:59:54.340Z,1011.29
2018-08-20T05:00:29.760Z,1011.33
2018-08-20T05:01:04.916Z,1011.29
2018-08-20T05:01:40.235Z,1011.31
2018-08-20T05:02:15.874Z,1011.29
2018-08-20T05:02:51.307Z,1011.30
2018-08-20T05:03:26.605Z,1011.29
2018-08-20T05:04:01.994Z,1011.32
2018-08-20T05:04:37.197Z,1011.33
2018-08-20T05:05:12.517Z,1011.34
2018-08-20T05:05:47.996Z,1011.37
2018-08-20T05:06:23.415Z,1011.36
2018-08-20T05:06:58.652Z,1011.34
2018-08-20T05:07:33.853Z,1011.39
2018-08-20T05:08:08.974Z,1011.40
2018-08-20T05:08:44.362Z,1011.41
2018-08-20T05:09:20.006Z,1011.44
2018-08-20T05:09:55.520Z,1011.39
2018-08-20T05:10:30.750Z,1011.40
2018-08-20T05:11:05.973Z,1011.43
2018-08-20T05:11:41.656Z,1011.47
2018-08-20T05:12:16.908Z,1011.44
2018-08-20T05:12:52.370Z,1011.42
2018-08-20T05:13:27.779Z,1011.48
2018-08-20T05:14:02.998Z,1011.49
2018-08-20T05:14:38.313Z,1011.44
2018-08-20T05:15:13.753Z,1011.47
2018-08-20T05:15:49.069Z,1011.46
2018-08-20T05:16:24.479Z,1011.49
2018-08-20T05:16:59.605Z,1011.48
2018-08-20T05:17:35.107Z,1011.50
2018-08-20T05:18:10.442Z,1011.49
2018-08-20T05:18:45.925Z,1011.53
2018-08-20T05:19:21.457Z,1011.48
2018-08-20T05:19:57.188Z,1011.56
2018-08-20T05:20:32.392Z,1011.57
2018-08-20T05:21:08.211Z,1011.58
2018-08-20T05:21:43.622Z,1011.57
2018-08-20T05:22:18.958Z,1011.54
2018-08-20T05:22:54.489Z,1011.57
2018-08-20T05:23:29.911Z,1011.52
2018-08-20T05:24:05.242Z,1011.54
2018-08-20T05:24:40.671Z,1011.55
2018-08-20T05:25:15.993Z,1011.53
2018-08-20T05:25:51.226Z,1011.52
2018-08-20T05:26:26.426Z,1011.55
2018-08-20T05:27:01.737Z,1011.53
2018-08-20T05:27:36.768Z,1011.52
2018-08-20T05:28:11.986Z,1011.55
2018-08-20T05:28:47.129Z,1011.60
2018-08-20T05:29:22.395Z,1011.58
2018-08-20T05:29:57.746Z,1011.59
2018-08-20T05:30:33.033Z,1011.59
2018-08-20T05:31:08.665Z,1011.60
2018-08-20T05:31:44.114Z,1011.64
2018-08-20T05:32:19.607Z,1011.63
2018-08-20T05:32:54.924Z,1011.66
2018-08-20T05:33:30.535Z,1011.68
2018-08-20T05:34:05.671Z,1011.66
2018-08-20T05:34:40.787Z,1011.67
2018-08-20T05:35:15.916Z,1011.69
2018-08-20T05:35:51.058Z,1011.73
2018-08-20T05:36:26.359Z,1011.74
2018-08-20T05:37:01.714Z,1011.69
2018-08-20T05:37:37.627Z,1011.73
2018-08-20T05:38:13.110Z,1011.70
2018-08-20T05:38:48.126Z,1011.76
2018-08-20T05:39:23.344Z,1011.69
2018-08-20T05:39:58.778Z,1011.72
2018-08-20T05:40:34.014Z,1011.74
2018-08-20T05:41:09.608Z,1011.68
2018-08-20T05:41:45.156Z,1011.73
2018-08-20T05:42:20.548Z,1011.68
2018-08-20T05:42:55.812Z,1011.73
2018-08-20T05:43:31.239Z,1011.77
2018-08-20T05:44:06.481Z,1011.74
2018-08-20T05:44:42.050Z,1011.76
2018-08-20T05:45:17.615Z,1011.75
2018-08-20T05:45:53.432Z,1011.74
2018-08-20T05:46:28.948Z,1011.70
2018-08-20T05:47:04.278Z,1011.76
2018-08-20T05:47:39.869Z,1011.75
2018-08-20T05:48:15.259Z,1011.74
2018-08-20T05:48:50.781Z,1011.75
2018-08-20T05:49:25.913Z,1011.74
2018-08-20T05:50:01.273Z,1011.72
2018-08-20T05:50:36.475Z,1011.71
2018-08-20T05:51:11.938Z,1011.74
2018-08-20T05:51:47.249Z,1011.78
2018-08-20T05:52:22.641Z,1011.75
2018-08-20T05:52:57.768Z,1011.78
2018-08-20T05:53:33.082Z,1011.80
2018-08-20T05:54:08.757Z,1011.75
2018-08-20T05:54:44.097Z,1011.76
2018-08-20T05:55:19.526Z,1011.74
2018-08-20T05:55:55.040Z,1011.75
2018-08-20T05:56:30.565Z,1011.76
2018-08-20T05:57:05.991Z,1011.80
2018-08-20T05:57:41.219Z,1011.79
2018-08-20T05:58:16.540Z,1011.80
2018-08-20T05:58:51.828Z,1011.80
2018-08-20T05:59:27.061Z,1011.79
2018-08-20T06:00:02.402Z,1011.78
2018-08-20T06:00:37.920Z,1011.82
2018-08-20T06:01:13.459Z,1011.81
2018-08-20T06:01:48.767Z,1011.77
2018-08-20T06:02:24.287Z,1011.78
2018-08-20T06:02:59.484Z,1011.77
2018-08-20T06:03:34.889Z,1011.79
2018-08-20T06:04:10.229Z,1011.83
2018-08-20T06:04:45.436Z,1011.87
2018-08-20T06:05:21.174Z,1011.85
2018-08-20T06:05:56.516Z,1011.85
2018-08-20T06:06:31.530Z,1011.83
2018-08-20T06:07:06.869Z,1011.87
2018-08-20T06:07:42.557Z,1011.91
2018-08-20T06:08:17.596Z,1011.94
2018-08-20T06:08:53.190Z,1011.92
2018-08-20T06:09:28.618Z,1011.90
2018-08-20T06:10:04.107Z,1011.97
2018-08-20T06:10:39.843Z,1011.97
2018-08-20T06:11:14.982Z,1011.97
2018-08-20T06:11:50.303Z,1011.99
2018-08-20T06:12:25.648Z,1011.95
2018-08-20T06:13:00.968Z,1012.00
2018-08-20T06:13:36.508Z,1011.99
2018-08-20T06:14:12.177Z,1012.00
2018-08-20T06:14:50.081Z,1012.01
2018-08-20T06:15:25.365Z,1012.05
2018-08-20T06:16:00.615Z,1012.03
2018-08-20T06:16:36.047Z,1012.05
2018-08-20T06:17:12.091Z,1012.11
2018-08-20T06:17:47.494Z,1012.11
2018-08-20T06:18:22.855Z,1012.08
2018-08-20T06:18:58.188Z,1012.07
2018-08-20T06:19:33.739Z,1012.05
2018-08-20T06:20:09.012Z,1012.03
2018-08-20T06:20:44.249Z,1012.07
2018-08-20T06:21:20.585Z,1012.07
2018-08-20T06:21:56.005Z,1012.08
2018-08-20T06:22:32.137Z,1012.10
2018-08-20T06:23:10.071Z,1012.10
2018-08-20T06:23:50.747Z,1012.09
2018-08-20T06:24:27.087Z,1012.11
2018-08-20T06:25:02.840Z,1012.09
2018-08-20T06:25:40.604Z,1012.15
2018-08-20T06:26:16.242Z,1012.14
2018-08-20T06:26:53.079Z,1012.15
2018-08-20T06:27:29.089Z,1012.15
2018-08-20T06:28:04.651Z,1012.20
2018-08-20T06:28:41.229Z,1012.20
2018-08-20T06:29:16.920Z,1012.24
2018-08-20T06:29:52.221Z,1012.17
2018-08-20T06:30:27.914Z,1012.18
2018-08-20T06:31:03.342Z,1012.20
2018-08-20T06:31:38.862Z,1012.26
2018-08-20T06:32:14.091Z,1012.25
2018-08-20T06:32:49.631Z,1012.21
2018-08-20T06:33:25.275Z,1012.23
2018-08-20T06:34:00.689Z,1012.21
2018-08-20T06:34:36.054Z,1012.22
2018-08-20T06:35:11.392Z,1012.21
2018-08-20T06:35:46.895Z,1012.20
2018-08-20T06:36:22.228Z,1012.21
2018-08-20T06:36:57.747Z,1012.22
2018-08-20T06:37:33.322Z,1012.24
2018-08-20T06:38:08.577Z,1012.24
2018-08-20T06:38:44.004Z,1012.24
2018-08-20T06:39:19.477Z,1012.25
2018-08-20T06:39:55.004Z,1012.22
2018-08-20T06:40:30.578Z,1012.26
2018-08-20T06:41:06.011Z,1012.25
2018-08-20T06:41:41.540Z,1012.25
2018-08-20T06:42:17.166Z,1012.26
2018-08-20T06:42:52.475Z,1012.30
2018-08-20T06:43:28.025Z,1012.24
2018-08-20T06:44:03.243Z,1012.24
2018-08-20T06:44:38.284Z,1012.23
2018-08-20T06:45:13.827Z,1012.22
2018-08-20T06:45:50.281Z,1012.20
2018-08-20T06:46:25.772Z,1012.17
2018-08-20T06:47:01.310Z,1012.20
2018-08-20T06:47:36.973Z,1012.16
2018-08-20T06:48:12.530Z,1012.22
2018-08-20T06:48:48.171Z,1012.19
2018-08-20T06:49:23.624Z,1012.17
2018-08-20T06:49:59.230Z,1012.18
2018-08-20T06:50:34.732Z,1012.18
2018-08-20T06:51:10.226Z,1012.17
2018-08-20T06:51:45.686Z,1012.20
2018-08-20T06:52:21.122Z,1012.19
2018-08-20T06:52:56.642Z,1012.18
2018-08-20T06:53:32.086Z,1012.18
2018-08-20T06:54:07.601Z,1012.17
2018-08-20T06:54:43.248Z,1012.19
2018-08-20T06:55:18.686Z,1012.18
2018-08-20T06:55:54.270Z,1012.23
2018-08-20T06:56:29.611Z,1012.22
2018-08-20T06:57:05.030Z,1012.21
2018-08-20T06:57:40.527Z,1012.21
2018-08-20T06:58:15.866Z,1012.24
2018-08-20T06:58:51.171Z,1012.26
2018-08-20T06:59:26.539Z,1012.23
2018-08-20T07:00:02.058Z,1012.26
2018-08-20T07:00:38.649Z,1012.24
2018-08-20T07:01:14.080Z,1012.24
2018-08-20T07:01:49.584Z,1012.25
2018-08-20T07:02:25.020Z,1012.28
2018-08-20T07:03:00.422Z,1012.28
2018-08-20T07:03:36.076Z,1012.24
2018-08-20T07:04:11.424Z,1012.26
2018-08-20T07:04:46.791Z,1012.30
2018-08-20T07:05:22.261Z,1012.25
2018-08-20T07:05:57.609Z,1012.29
2018-08-20T07:06:32.910Z,1012.31
2018-08-20T07:07:08.580Z,1012.30
2018-08-20T07:07:44.285Z,1012.30
2018-08-20T07:08:20.089Z,1012.30